Time;durP1;ratioP1;P1;durP2;ratioP2;P2;SDS_P1;SDS_P2;PMS_P1;PMS_P2;Temp;Humidity;BMP_temperature;BMP_pressure;BME280_temperature;BME280_humidity;BME280_pressure;Samples;Min_cycle;Max_cycle;Signal;HPM_P1;HPM_P2
2021/03/25 00:00:52;;;;;;;80.47;48.63;;;;;;;;;;2061045;28;20182;-60
2021/03/25 00:01:54;;;;;;;81.57;48.37;;;;;;;;;;2063776;28;20177;-61
2021/03/25 00:02:56;;;;;;;81.33;47.83;;;;;;;;;;2064335;28;20281;-58
2021/03/25 00:03:56;;;;;;;81.63;48.57;;;;;;;;;;2065485;28;20209;-59
2021/03/25 00:04:57;;;;;;;82.30;49.27;;;;;;;;;;2062577;28;20205;-60
2021/03/25 00:05:57;;;;;;;80.70;47.23;;;;;;;;;;2061840;28;20269;-58
2021/03/25 00:06:59;;;;;;;80.33;48.87;;;;;;;;;;2064641;28;20177;-59
2021/03/25 00:07:59;;;;;;;81.60;45.87;;;;;;;;;;2061483;28;20262;-59
2021/03/25 00:08:59;;;;;;;78.63;46.50;;;;;;;;;;2061871;28;20165;-59
2021/03/25 00:10:00;;;;;;;80.13;47.87;;;;;;;;;;2065384;28;20178;-63
2021/03/25 00:11:00;;;;;;;82.47;46.80;;;;;;;;;;2065556;28;20200;-61
2021/03/25 00:12:00;;;;;;;76.37;47.00;;;;;;;;;;2064407;28;20177;-58
2021/03/25 00:13:01;;;;;;;83.10;47.60;;;;;;;;;;2062129;28;20201;-58
2021/03/25 00:14:02;;;;;;;78.83;48.30;;;;;;;;;;2061990;28;20261;-56
2021/03/25 00:15:04;;;;;;;77.20;46.33;;;;;;;;;;2062547;28;20188;-59
2021/03/25 00:16:05;;;;;;;77.83;46.10;;;;;;;;;;2064494;28;20166;-59
2021/03/25 00:17:05;;;;;;;82.00;45.97;;;;;;;;;;2065559;28;20174;-59
2021/03/25 00:18:06;;;;;;;75.83;47.20;;;;;;;;;;2061372;28;20599;-61
2021/03/25 00:19:08;;;;;;;82.47;48.03;;;;;;;;;;2063443;28;20173;-59
2021/03/25 00:20:08;;;;;;;76.27;46.33;;;;;;;;;;2063327;28;20186;-58
2021/03/25 00:21:10;;;;;;;83.23;47.63;;;;;;;;;;2057976;28;20663;-59
2021/03/25 00:22:11;;;;;;;77.63;46.77;;;;;;;;;;2052859;28;20178;-59
2021/03/25 00:23:12;;;;;;;84.87;48.93;;;;;;;;;;2066027;28;20185;-59
2021/03/25 00:24:13;;;;;;;80.27;47.93;;;;;;;;;;2067109;28;20178;-57
2021/03/25 00:25:20;;;;;;;74.33;46.27;;;;;;;;;;2063851;28;20184;-57
2021/03/25 00:26:20;;;;;;;82.53;47.80;;;;;;;;;;2063574;28;20619;-60
2021/03/25 00:27:20;;;;;;;86.80;49.23;;;;;;;;;;2064248;28;20178;-58
2021/03/25 00:28:20;;;;;;;81.97;48.73;;;;;;;;;;2065830;28;20529;-59
2021/03/25 00:29:21;;;;;;;83.20;47.13;;;;;;;;;;2066355;28;20178;-58
2021/03/25 00:30:22;;;;;;;79.87;48.30;;;;;;;;;;2067525;28;20256;-62
2021/03/25 00:31:23;;;;;;;82.40;47.70;;;;;;;;;;2068754;28;20182;-60
2021/03/25 00:32:23;;;;;;;83.90;49.47;;;;;;;;;;2067385;28;20220;-60
2021/03/25 00:33:23;;;;;;;83.40;48.90;;;;;;;;;;2070793;28;20174;-60
2021/03/25 00:34:23;;;;;;;89.80;48.30;;;;;;;;;;2067927;28;20768;-59
2021/03/25 00:35:24;;;;;;;86.33;48.50;;;;;;;;;;2054993;28;20184;-60
2021/03/25 00:36:25;;;;;;;83.60;49.17;;;;;;;;;;2060505;28;20171;-60
2021/03/25 00:37:25;;;;;;;80.90;48.97;;;;;;;;;;2068326;28;20238;-60
2021/03/25 00:38:25;;;;;;;86.43;48.60;;;;;;;;;;2068792;28;20170;-60
2021/03/25 00:39:26;;;;;;;80.33;47.83;;;;;;;;;;2062173;28;20182;-60
2021/03/25 00:40:26;;;;;;;82.67;49.50;;;;;;;;;;2067731;28;20205;-60
2021/03/25 00:41:27;;;;;;;89.77;49.00;;;;;;;;;;2066094;28;20174;-59
2021/03/25 00:42:27;;;;;;;83.67;48.80;;;;;;;;;;2065974;28;20177;-59
2021/03/25 00:43:27;;;;;;;86.80;50.13;;;;;;;;;;2060571;28;20210;-60
2021/03/25 00:44:27;;;;;;;80.80;47.43;;;;;;;;;;2065663;28;20575;-59
2021/03/25 00:45:34;;;;;;;88.70;48.60;;;;;;;;;;2062310;28;20217;-60
2021/03/25 00:46:35;;;;;;;90.63;51.17;;;;;;;;;;2066279;28;20681;-59
2021/03/25 00:47:35;;;;;;;85.47;48.50;;;;;;;;;;2063358;28;20280;-60
2021/03/25 00:48:35;;;;;;;83.03;49.03;;;;;;;;;;2064546;28;20170;-60
2021/03/25 00:49:36;;;;;;;90.63;52.83;;;;;;;;;;2065254;28;20564;-60
2021/03/25 00:50:38;;;;;;;84.40;51.60;;;;;;;;;;2060896;28;20297;-60
2021/03/25 00:51:39;;;;;;;95.17;51.93;;;;;;;;;;2068137;28;20236;-61
2021/03/25 00:52:39;;;;;;;95.43;52.30;;;;;;;;;;2063543;28;20246;-60
2021/03/25 00:53:39;;;;;;;84.93;50.37;;;;;;;;;;2068246;28;20253;-60
2021/03/25 00:54:40;;;;;;;88.77;50.13;;;;;;;;;;2064186;28;20167;-59
2021/03/25 00:55:41;;;;;;;95.93;50.93;;;;;;;;;;2064990;28;20181;-59
2021/03/25 00:56:41;;;;;;;91.40;52.73;;;;;;;;;;2062528;28;20232;-58
2021/03/25 00:57:41;;;;;;;97.17;55.80;;;;;;;;;;2063006;28;20330;-59
2021/03/25 00:58:41;;;;;;;91.33;52.97;;;;;;;;;;2064623;28;20603;-60
2021/03/25 00:59:42;;;;;;;90.57;51.53;;;;;;;;;;2065060;28;20163;-59
2021/03/25 01:00:43;;;;;;;86.37;50.47;;;;;;;;;;2061520;28;20570;-59
2021/03/25 01:01:44;;;;;;;86.10;52.40;;;;;;;;;;2059726;28;20240;-59
2021/03/25 01:02:44;;;;;;;84.90;50.70;;;;;;;;;;2063719;28;20186;-58
2021/03/25 01:03:44;;;;;;;90.23;52.73;;;;;;;;;;2065278;28;20189;-60
2021/03/25 01:04:45;;;;;;;90.10;49.87;;;;;;;;;;2061750;28;20244;-60
2021/03/25 01:05:46;;;;;;;88.53;51.87;;;;;;;;;;2061699;28;20201;-58
2021/03/25 01:06:46;;;;;;;85.97;50.20;;;;;;;;;;2051488;28;20233;-59
2021/03/25 01:07:47;;;;;;;83.97;50.63;;;;;;;;;;2053095;28;20679;-59
2021/03/25 01:08:48;;;;;;;83.83;50.33;;;;;;;;;;2061741;28;20173;-57
2021/03/25 01:09:48;;;;;;;90.10;50.23;;;;;;;;;;2060737;28;20600;-58
2021/03/25 01:10:50;;;;;;;89.40;49.43;;;;;;;;;;2059888;28;20231;-60
2021/03/25 01:11:51;;;;;;;90.13;48.83;;;;;;;;;;2064946;28;20161;-57
2021/03/25 01:12:52;;;;;;;89.40;51.23;;;;;;;;;;2064461;28;20221;-58
2021/03/25 01:13:57;;;;;;;85.80;48.40;;;;;;;;;;2064861;28;20181;-59
2021/03/25 01:14:57;;;;;;;84.73;49.80;;;;;;;;;;2064657;28;20169;-58
2021/03/25 01:15:58;;;;;;;85.77;49.70;;;;;;;;;;2060826;28;20178;-58
2021/03/25 01:17:02;;;;;;;91.00;50.00;;;;;;;;;;2061281;28;20183;-56
2021/03/25 01:18:04;;;;;;;87.77;50.20;;;;;;;;;;2060889;28;20695;-59
2021/03/25 01:19:09;;;;;;;87.73;51.40;;;;;;;;;;2059060;28;20205;-59
2021/03/25 01:20:13;;;;;;;80.53;50.00;;;;;;;;;;2055898;28;20178;-59
2021/03/25 01:21:13;;;;;;;82.37;47.23;;;;;;;;;;2065033;28;20174;-59
2021/03/25 01:22:14;;;;;;;80.63;47.90;;;;;;;;;;2055040;28;22179;-59
2021/03/25 01:23:15;;;;;;;86.70;47.93;;;;;;;;;;2056149;28;20617;-56
2021/03/25 01:24:15;;;;;;;81.73;49.27;;;;;;;;;;2062411;28;20224;-61
2021/03/25 01:25:17;;;;;;;87.60;49.07;;;;;;;;;;2061040;28;20248;-59
2021/03/25 01:26:17;;;;;;;85.00;48.73;;;;;;;;;;2064218;28;20172;-59
2021/03/25 01:27:17;;;;;;;90.50;48.77;;;;;;;;;;2064583;28;20646;-56
2021/03/25 01:28:18;;;;;;;89.77;51.20;;;;;;;;;;2063350;28;20202;-59
2021/03/25 01:29:21;;;;;;;85.53;49.73;;;;;;;;;;2065321;28;20183;-59
2021/03/25 01:30:22;;;;;;;89.00;51.10;;;;;;;;;;2062475;28;20182;-59
2021/03/25 01:31:22;;;;;;;89.27;50.37;;;;;;;;;;2063780;28;20597;-59
2021/03/25 01:32:23;;;;;;;80.37;48.07;;;;;;;;;;2064090;28;20201;-59
2021/03/25 01:33:24;;;;;;;83.80;47.40;;;;;;;;;;2064371;28;20169;-60
2021/03/25 01:34:24;;;;;;;85.17;49.17;;;;;;;;;;2064383;28;20213;-60
2021/03/25 01:35:26;;;;;;;84.13;47.37;;;;;;;;;;2062739;28;20178;-58
2021/03/25 01:36:27;;;;;;;82.13;47.67;;;;;;;;;;2062399;28;20197;-59
2021/03/25 01:37:27;;;;;;;79.90;47.83;;;;;;;;;;2064896;28;20173;-59
2021/03/25 01:38:39;;;;;;;77.50;47.77;;;;;;;;;;2064343;28;20177;-59
2021/03/25 01:39:40;;;;;;;82.10;49.60;;;;;;;;;;2064539;28;20804;-59
2021/03/25 01:40:42;;;;;;;87.03;47.30;;;;;;;;;;2061559;28;20166;-57
2021/03/25 01:41:42;;;;;;;83.80;45.97;;;;;;;;;;2059060;28;20177;-59
2021/03/25 01:42:43;;;;;;;80.00;47.40;;;;;;;;;;2061726;28;20190;-59
2021/03/25 01:43:44;;;;;;;83.23;47.70;;;;;;;;;;2064956;28;20173;-59
2021/03/25 01:44:45;;;;;;;83.83;49.03;;;;;;;;;;2063954;28;20197;-61
2021/03/25 01:45:58;;;;;;;89.20;48.93;;;;;;;;;;2054117;28;20178;-59
2021/03/25 01:46:59;;;;;;;92.53;49.53;;;;;;;;;;2064114;28;20693;-59
2021/03/25 01:48:00;;;;;;;87.37;49.80;;;;;;;;;;2054021;28;20198;-60
2021/03/25 01:49:05;;;;;;;88.77;51.67;;;;;;;;;;2052852;28;20266;-60
2021/03/25 01:50:09;;;;;;;84.20;50.50;;;;;;;;;;2060065;28;20165;-61
2021/03/25 01:51:09;;;;;;;84.13;48.77;;;;;;;;;;2064307;28;20665;-59
2021/03/25 01:52:28;;;;;;;87.17;47.50;;;;;;;;;;2064114;28;20887;-59
2021/03/25 01:53:47;;;;;;;80.17;46.47;;;;;;;;;;2048676;28;20745;-61
2021/03/25 01:55:06;;;;;;;78.93;45.27;;;;;;;;;;2053708;28;20270;-61
2021/03/25 01:56:29;;;;;;;76.70;45.13;;;;;;;;;;2061991;28;20177;-58
2021/03/25 01:57:29;;;;;;;74.90;44.77;;;;;;;;;;2048568;28;20250;-58
2021/03/25 01:58:37;;;;;;;78.63;45.63;;;;;;;;;;2046013;28;20632;-57
2021/03/25 01:59:45;;;;;;;75.63;45.97;;;;;;;;;;2062075;28;20177;-60
2021/03/25 02:00:45;;;;;;;76.83;44.73;;;;;;;;;;2068934;28;20169;-58
2021/03/25 02:01:55;;;;;;;75.13;44.43;;;;;;;;;;2062979;28;20173;-61
2021/03/25 02:03:14;;;;;;;77.13;44.80;;;;;;;;;;2059713;28;20807;-61
2021/03/25 02:04:19;;;;;;;70.17;43.77;;;;;;;;;;2054930;28;20635;-59
2021/03/25 02:05:37;;;;;;;75.53;45.77;;;;;;;;;;2046985;28;20526;-60
2021/03/25 02:06:57;;;;;;;79.23;45.00;;;;;;;;;;2058622;28;20208;-59
2021/03/25 02:08:13;;;;;;;72.43;44.63;;;;;;;;;;2057721;28;20204;-60
2021/03/25 02:09:15;;;;;;;71.23;43.30;;;;;;;;;;2065830;28;20272;-57
2021/03/25 02:10:22;;;;;;;72.73;45.27;;;;;;;;;;2065150;28;20669;-59
2021/03/25 02:11:37;;;;;;;79.43;47.57;;;;;;;;;;2059277;28;20212;-60
2021/03/25 02:12:41;;;;;;;82.67;46.87;;;;;;;;;;2065913;28;20177;-60
2021/03/25 02:13:51;;;;;;;80.27;45.67;;;;;;;;;;2062744;28;20181;-57
2021/03/25 02:15:00;;;;;;;72.87;42.40;;;;;;;;;;2056564;28;20610;-59
2021/03/25 02:16:03;;;;;;;69.37;43.40;;;;;;;;;;2052118;28;20198;-60
2021/03/25 02:17:14;;;;;;;68.33;41.63;;;;;;;;;;2054895;28;20336;-59
2021/03/25 02:18:36;;;;;;;72.70;42.40;;;;;;;;;;2049016;28;20178;-59
2021/03/25 02:20:03;;;;;;;73.37;41.60;;;;;;;;;;2052613;28;20571;-60
2021/03/25 02:21:08;;;;;;;67.17;40.47;;;;;;;;;;2065571;28;20170;-59
2021/03/25 02:22:08;;;;;;;71.47;43.23;;;;;;;;;;2071753;28;20208;-60
2021/03/25 02:23:29;;;;;;;76.47;44.30;;;;;;;;;;2064335;28;20189;-59
2021/03/25 02:24:32;;;;;;;76.73;42.57;;;;;;;;;;2065463;28;20165;-59
2021/03/25 02:25:41;;;;;;;68.90;42.97;;;;;;;;;;2062091;28;20174;-60
2021/03/25 02:27:22;;;;;;;76.00;44.83;;;;;;;;;;2050872;28;20191;-61
2021/03/25 02:28:41;;;;;;;73.90;43.87;;;;;;;;;;2060812;28;20181;-59
2021/03/25 02:30:01;;;;;;;72.67;44.50;;;;;;;;;;2059658;28;20633;-62
2021/03/25 02:31:10;;;;;;;72.90;42.77;;;;;;;;;;2059811;28;20184;-59
2021/03/25 02:32:14;;;;;;;67.27;42.43;;;;;;;;;;2064539;28;20611;-61
2021/03/25 02:33:19;;;;;;;73.03;41.03;;;;;;;;;;2066133;28;20205;-61
2021/03/25 02:34:25;;;;;;;74.93;42.87;;;;;;;;;;2058095;28;20170;-60
2021/03/25 02:35:33;;;;;;;70.37;41.70;;;;;;;;;;2053084;28;20779;-59
2021/03/25 02:36:50;;;;;;;72.97;42.87;;;;;;;;;;2057471;28;20258;-58
2021/03/25 02:37:58;;;;;;;74.70;42.73;;;;;;;;;;2056337;28;20197;-61
2021/03/25 02:39:01;;;;;;;69.27;39.90;;;;;;;;;;2061325;28;20181;-60
2021/03/25 02:40:11;;;;;;;67.10;41.40;;;;;;;;;;2063485;28;20171;-58
2021/03/25 02:41:20;;;;;;;73.20;44.60;;;;;;;;;;2060816;28;20260;-61
2021/03/25 02:42:26;;;;;;;63.90;42.37;;;;;;;;;;2063010;28;20545;-59
2021/03/25 02:43:31;;;;;;;71.27;42.40;;;;;;;;;;2063284;28;20173;-60
2021/03/25 02:44:34;;;;;;;70.13;42.53;;;;;;;;;;2058388;28;20596;-60
2021/03/25 02:45:39;;;;;;;67.10;40.83;;;;;;;;;;2054394;28;20227;-61
2021/03/25 02:46:41;;;;;;;66.10;38.63;;;;;;;;;;2064323;28;20239;-58
2021/03/25 02:47:44;;;;;;;62.30;38.90;;;;;;;;;;2063738;28;20201;-60
2021/03/25 02:48:46;;;;;;;65.50;40.43;;;;;;;;;;2062622;28;20730;-60
2021/03/25 02:49:56;;;;;;;66.73;40.63;;;;;;;;;;2061448;28;20174;-59
2021/03/25 02:51:03;;;;;;;68.10;41.50;;;;;;;;;;2058045;28;20819;-59
2021/03/25 02:52:07;;;;;;;62.60;41.20;;;;;;;;;;2062106;28;20180;-58
2021/03/25 02:53:18;;;;;;;66.80;40.60;;;;;;;;;;2055659;28;20197;-59
2021/03/25 02:54:18;;;;;;;69.53;40.27;;;;;;;;;;2050078;28;21683;-61
2021/03/25 02:55:19;;;;;;;65.20;39.87;;;;;;;;;;2064160;28;20197;-61
2021/03/25 02:56:26;;;;;;;61.20;39.77;;;;;;;;;;2065025;28;20165;-59
2021/03/25 02:57:40;;;;;;;65.70;41.40;;;;;;;;;;2063265;28;20730;-61
2021/03/25 02:59:08;;;;;;;69.33;40.43;;;;;;;;;;2083802;22;20235;-62
2021/03/25 03:00:11;;;;;;;68.47;39.13;;;;;;;;;;2078846;28;20179;-63
2021/03/25 03:01:14;;;;;;;65.87;39.47;;;;;;;;;;2071467;28;20195;-63
2021/03/25 03:02:18;;;;;;;69.83;42.67;;;;;;;;;;2070150;28;20173;-65
2021/03/25 03:03:22;;;;;;;69.87;41.40;;;;;;;;;;2072857;28;20723;-63
2021/03/25 03:04:38;;;;;;;63.07;39.80;;;;;;;;;;2077238;28;20552;-63
2021/03/25 03:05:40;;;;;;;67.93;42.83;;;;;;;;;;2077689;28;20264;-64
2021/03/25 03:06:43;;;;;;;68.27;40.67;;;;;;;;;;2077570;28;20201;-65
2021/03/25 03:07:48;;;;;;;65.70;41.43;;;;;;;;;;2078437;28;20715;-64
2021/03/25 03:08:56;;;;;;;64.80;41.77;;;;;;;;;;2074947;28;20679;-65
2021/03/25 03:10:05;;;;;;;61.57;38.90;;;;;;;;;;2081632;28;20270;-63
2021/03/25 03:11:25;;;;;;;63.70;38.60;;;;;;;;;;2077173;28;20606;-64
2021/03/25 03:12:31;;;;;;;61.43;39.10;;;;;;;;;;2075092;28;20616;-64
2021/03/25 03:13:34;;;;;;;70.03;40.93;;;;;;;;;;2080463;28;20175;-65
2021/03/25 03:14:36;;;;;;;57.63;36.83;;;;;;;;;;2081123;28;20255;-64
2021/03/25 03:15:59;;;;;;;64.87;39.63;;;;;;;;;;2081226;28;20164;-63
2021/03/25 03:17:07;;;;;;;61.83;37.37;;;;;;;;;;2076405;28;20288;-64
2021/03/25 03:18:17;;;;;;;58.27;37.97;;;;;;;;;;2074468;28;20180;-65
2021/03/25 03:19:27;;;;;;;66.67;38.07;;;;;;;;;;2081403;28;20263;-65
2021/03/25 03:20:37;;;;;;;57.57;37.93;;;;;;;;;;2081529;28;20172;-65
2021/03/25 03:22:08;;;;;;;60.50;37.60;;;;;;;;;;2065209;28;20168;-64
2021/03/25 03:23:32;;;;;;;56.63;36.93;;;;;;;;;;2068479;28;20704;-64
2021/03/25 03:24:33;;;;;;;58.80;37.43;;;;;;;;;;2087425;28;20249;-64
2021/03/25 03:25:56;;;;;;;68.93;39.20;;;;;;;;;;2068881;28;20184;-63
2021/03/25 03:27:03;;;;;;;65.33;40.70;;;;;;;;;;2080466;28;20172;-65
2021/03/25 03:28:06;;;;;;;65.37;39.00;;;;;;;;;;2080731;28;20702;-64
2021/03/25 03:29:08;;;;;;;60.00;39.03;;;;;;;;;;2078251;28;20180;-65
2021/03/25 03:30:21;;;;;;;63.90;39.40;;;;;;;;;;2080295;28;20164;-63
2021/03/25 03:31:43;;;;;;;61.90;39.67;;;;;;;;;;2088911;28;20226;-65
2021/03/25 03:32:55;;;;;;;71.10;41.57;;;;;;;;;;2080991;28;20259;-65
2021/03/25 03:34:08;;;;;;;63.87;38.27;;;;;;;;;;2074131;28;20184;-64
2021/03/25 03:35:11;;;;;;;61.03;40.27;;;;;;;;;;2071086;28;20168;-65
2021/03/25 03:36:15;;;;;;;62.00;40.63;;;;;;;;;;2073606;28;20177;-64
2021/03/25 03:37:21;;;;;;;66.63;41.03;;;;;;;;;;2081372;28;20247;-65
2021/03/25 03:38:32;;;;;;;62.83;40.43;;;;;;;;;;2081101;28;20209;-65
2021/03/25 03:39:54;;;;;;;61.37;39.53;;;;;;;;;;2084468;28;20564;-64
2021/03/25 03:41:08;;;;;;;66.33;39.57;;;;;;;;;;2080381;28;20586;-65
2021/03/25 03:42:14;;;;;;;62.67;41.13;;;;;;;;;;2080880;28;20176;-63
2021/03/25 03:43:15;;;;;;;60.73;39.60;;;;;;;;;;2081111;28;20168;-63
2021/03/25 03:44:22;;;;;;;65.40;41.53;;;;;;;;;;2073524;28;20272;-64
2021/03/25 03:45:24;;;;;;;62.33;40.63;;;;;;;;;;2080708;28;21806;-62
2021/03/25 03:46:38;;;;;;;67.47;39.87;;;;;;;;;;2072566;28;20623;-64
2021/03/25 03:47:40;;;;;;;64.57;39.90;;;;;;;;;;2066721;28;20182;-65
2021/03/25 03:48:41;;;;;;;63.45;41.30;;;;;;;;;;2080961;28;20761;-64
2021/03/25 03:49:46;;;;;;;60.93;38.33;;;;;;;;;;2084212;28;20172;-64
2021/03/25 03:50:52;;;;;;;60.13;38.00;;;;;;;;;;2080103;28;20196;-64
2021/03/25 03:51:52;;;;;;;59.17;38.67;;;;;;;;;;2073009;28;20175;-66
2021/03/25 03:52:53;;;;;;;56.30;38.73;;;;;;;;;;2081391;28;20677;-62
2021/03/25 03:53:58;;;;;;;64.53;39.83;;;;;;;;;;2074148;28;20239;-64
2021/03/25 03:54:59;;;;;;;60.27;38.40;;;;;;;;;;2080457;28;20183;-65
2021/03/25 03:56:10;;;;;;;63.43;40.93;;;;;;;;;;2080742;28;20302;-63
2021/03/25 03:57:19;;;;;;;59.13;38.53;;;;;;;;;;2079514;28;20780;-64
2021/03/25 03:58:34;;;;;;;68.50;40.60;;;;;;;;;;2078036;28;20191;-63
2021/03/25 03:59:43;;;;;;;67.07;40.60;;;;;;;;;;2074037;28;20188;-65
2021/03/25 04:00:45;;;;;;;65.37;39.97;;;;;;;;;;2078495;28;20179;-65
2021/03/25 04:01:51;;;;;;;65.93;42.05;;;;;;;;;;2080885;28;20226;-65
2021/03/25 04:02:55;;;;;;;63.13;41.03;;;;;;;;;;2080607;28;20618;-64
2021/03/25 04:04:19;;;;;;;58.85;37.42;;;;;;;;;;2080879;28;20161;-64
2021/03/25 04:05:38;;;;;;;68.07;41.17;;;;;;;;;;2079231;28;20179;-65
2021/03/25 04:06:55;;;;;;;61.50;38.40;;;;;;;;;;2073699;28;20161;-64
2021/03/25 04:08:19;;;;;;;66.13;38.27;;;;;;;;;;2073740;28;20203;-65
2021/03/25 04:09:39;;;;;;;62.65;39.00;;;;;;;;;;2080435;28;20159;-64
2021/03/25 04:11:02;;;;;;;61.07;38.00;;;;;;;;;;2081265;28;20168;-65
2021/03/25 04:12:08;;;;;;;58.65;38.80;;;;;;;;;;2077346;28;20826;-66
2021/03/25 04:13:12;;;;;;;64.43;39.53;;;;;;;;;;2075570;28;20606;-63
2021/03/25 04:14:18;;;;;;;66.17;38.70;;;;;;;;;;2070453;28;20173;-63
2021/03/25 04:15:38;;;;;;;62.77;37.67;;;;;;;;;;2075713;28;20202;-63
2021/03/25 04:16:45;;;;;;;61.47;38.33;;;;;;;;;;2072273;28;20216;-63
2021/03/25 04:17:47;;;;;;;58.88;36.60;;;;;;;;;;2072658;28;20556;-63
2021/03/25 04:19:15;;;;;;;63.17;40.97;;;;;;;;;;2072367;28;20192;-63
2021/03/25 04:20:28;;;;;;;64.63;38.60;;;;;;;;;;2079624;28;20172;-63
2021/03/25 04:22:05;;;;;;;60.37;37.60;;;;;;;;;;2078357;28;20169;-63
2021/03/25 04:23:08;;;;;;;61.70;38.43;;;;;;;;;;2080864;28;20168;-62
2021/03/25 04:24:14;;;;;;;62.93;39.63;;;;;;;;;;2078482;28;20176;-64
2021/03/25 04:25:24;;;;;;;59.97;38.10;;;;;;;;;;2080451;28;20627;-62
2021/03/25 04:26:43;;;;;;;63.93;41.07;;;;;;;;;;2077630;28;20188;-64
2021/03/25 04:27:53;;;;;;;65.57;41.73;;;;;;;;;;2080425;28;20176;-62
2021/03/25 04:29:03;;;;;;;63.33;40.47;;;;;;;;;;2081736;28;20218;-65
2021/03/25 04:30:09;;;;;;;67.23;41.70;;;;;;;;;;2078972;28;20168;-62
2021/03/25 04:31:10;;;;;;;67.23;38.87;;;;;;;;;;2081718;28;20618;-63
2021/03/25 04:32:10;;;;;;;67.73;41.77;;;;;;;;;;2081511;28;20184;-63
2021/03/25 04:33:12;;;;;;;68.20;40.63;;;;;;;;;;2081650;28;20207;-60
2021/03/25 04:34:13;;;;;;;67.93;41.03;;;;;;;;;;2081669;28;20172;-63
2021/03/25 04:35:13;;;;;;;61.50;40.50;;;;;;;;;;2081415;28;20255;-63
2021/03/25 04:36:16;;;;;;;63.97;39.93;;;;;;;;;;2081179;28;20184;-63
2021/03/25 04:37:17;;;;;;;60.47;39.83;;;;;;;;;;2080866;28;20198;-62
2021/03/25 04:38:19;;;;;;;62.53;38.97;;;;;;;;;;2081437;28;20275;-61
2021/03/25 04:39:21;;;;;;;59.40;40.28;;;;;;;;;;2081875;28;20652;-64
2021/03/25 04:40:23;;;;;;;62.93;40.40;;;;;;;;;;2078728;28;20176;-63
2021/03/25 04:41:24;;;;;;;59.28;37.53;;;;;;;;;;2079990;28;20208;-62
2021/03/25 04:42:24;;;;;;;62.40;39.78;;;;;;;;;;2078405;28;20590;-62
2021/03/25 04:43:24;;;;;;;70.07;42.53;;;;;;;;;;2081619;28;20656;-62
2021/03/25 04:44:45;;;;;;;63.55;40.45;;;;;;;;;;2081256;28;20180;-62
2021/03/25 04:46:00;;;;;;;65.70;38.97;;;;;;;;;;2081104;28;20668;-63
2021/03/25 04:47:01;;;;;;;57.73;39.17;;;;;;;;;;2080913;28;21482;-63
2021/03/25 04:48:02;;;;;;;63.70;41.13;;;;;;;;;;2078327;28;20211;-63
2021/03/25 04:49:04;;;;;;;63.33;41.03;;;;;;;;;;2079165;28;20173;-63
2021/03/25 04:50:13;;;;;;;62.80;40.90;;;;;;;;;;2082117;28;20160;-61
2021/03/25 04:51:15;;;;;;;68.07;39.90;;;;;;;;;;2081667;28;20242;-62
2021/03/25 04:52:17;;;;;;;56.25;37.78;;;;;;;;;;2081850;28;20235;-63
2021/03/25 04:53:20;;;;;;;66.25;42.65;;;;;;;;;;2081693;28;20249;-63
2021/03/25 04:54:28;;;;;;;65.93;42.10;;;;;;;;;;2078827;28;20177;-64
2021/03/25 04:55:31;;;;;;;65.27;40.07;;;;;;;;;;2078766;28;20168;-64
2021/03/25 04:56:32;;;;;;;65.63;41.43;;;;;;;;;;2080925;28;20521;-62
2021/03/25 04:57:37;;;;;;;70.33;41.27;;;;;;;;;;2080835;28;20179;-63
2021/03/25 04:58:39;;;;;;;66.63;42.10;;;;;;;;;;2080486;28;20668;-63
2021/03/25 04:59:39;;;;;;;68.10;41.67;;;;;;;;;;2080664;28;20222;-63
2021/03/25 05:00:40;;;;;;;65.20;42.90;;;;;;;;;;2080568;28;20183;-63
2021/03/25 05:01:41;;;;;;;63.57;40.57;;;;;;;;;;2080233;28;20299;-63
2021/03/25 05:02:42;;;;;;;68.87;43.57;;;;;;;;;;2080565;28;20184;-63
2021/03/25 05:03:42;;;;;;;60.63;40.97;;;;;;;;;;2080674;28;20206;-63
2021/03/25 05:04:44;;;;;;;64.70;41.72;;;;;;;;;;2078584;28;20672;-63
2021/03/25 05:05:44;;;;;;;65.55;41.42;;;;;;;;;;2081171;28;20629;-61
2021/03/25 05:06:47;;;;;;;62.08;41.08;;;;;;;;;;2081373;28;20184;-62
2021/03/25 05:07:50;;;;;;;63.80;40.23;;;;;;;;;;2081142;28;20216;-64
2021/03/25 05:08:52;;;;;;;68.45;42.30;;;;;;;;;;2081293;28;20625;-61
2021/03/25 05:09:54;;;;;;;65.65;40.83;;;;;;;;;;2080603;28;20176;-62
2021/03/25 05:10:56;;;;;;;67.50;42.63;;;;;;;;;;2072677;28;20223;-64
2021/03/25 05:11:57;;;;;;;65.40;41.97;;;;;;;;;;2080145;28;20523;-63
2021/03/25 05:12:58;;;;;;;70.22;43.10;;;;;;;;;;2080868;28;20215;-64
2021/03/25 05:13:59;;;;;;;63.80;42.47;;;;;;;;;;2080788;28;20175;-64
2021/03/25 05:15:04;;;;;;;65.43;42.97;;;;;;;;;;2078079;28;20781;-62
2021/03/25 05:16:07;;;;;;;64.30;43.72;;;;;;;;;;2077903;28;20176;-63
2021/03/25 05:17:16;;;;;;;72.60;43.20;;;;;;;;;;2077589;28;20195;-66
2021/03/25 05:18:28;;;;;;;69.07;42.05;;;;;;;;;;2079900;28;20275;-64
2021/03/25 05:19:31;;;;;;;66.45;43.25;;;;;;;;;;2077296;28;20192;-63
2021/03/25 05:20:35;;;;;;;66.15;41.78;;;;;;;;;;2080379;28;20267;-62
2021/03/25 05:21:55;;;;;;;67.05;43.38;;;;;;;;;;2080142;28;20180;-63
2021/03/25 05:23:15;;;;;;;67.45;42.78;;;;;;;;;;2070129;28;20189;-64
2021/03/25 05:24:15;;;;;;;66.17;41.97;;;;;;;;;;2081638;28;20565;-64
2021/03/25 05:25:21;;;;;;;69.53;43.20;;;;;;;;;;2082964;28;20168;-64
2021/03/25 05:26:28;;;;;;;67.35;42.00;;;;;;;;;;2079259;28;20179;-63
2021/03/25 05:27:32;;;;;;;64.45;42.55;;;;;;;;;;2082011;28;20172;-65
2021/03/25 05:28:38;;;;;;;65.43;42.70;;;;;;;;;;2080208;28;20204;-64
2021/03/25 05:29:40;;;;;;;64.90;41.47;;;;;;;;;;2081619;28;20172;-63
2021/03/25 05:30:41;;;;;;;71.43;41.50;;;;;;;;;;2081341;28;20195;-64
2021/03/25 05:31:42;;;;;;;65.97;40.50;;;;;;;;;;2070664;28;20279;-65
2021/03/25 05:32:44;;;;;;;68.47;42.03;;;;;;;;;;2080310;28;20172;-63
2021/03/25 05:33:50;;;;;;;60.70;40.50;;;;;;;;;;2082012;28;20181;-64
2021/03/25 05:34:52;;;;;;;64.15;40.13;;;;;;;;;;2080874;28;20525;-61
2021/03/25 05:35:54;;;;;;;60.55;40.25;;;;;;;;;;2081367;28;20219;-64
2021/03/25 05:36:56;;;;;;;66.73;42.47;;;;;;;;;;2080950;28;20176;-65
2021/03/25 05:37:56;;;;;;;65.53;40.23;;;;;;;;;;2080413;28;20180;-63
2021/03/25 05:38:57;;;;;;;68.55;42.97;;;;;;;;;;2080831;28;20279;-62
2021/03/25 05:39:58;;;;;;;63.00;41.45;;;;;;;;;;2080892;28;20168;-63
2021/03/25 05:41:01;;;;;;;65.73;42.77;;;;;;;;;;2081069;28;20176;-63
2021/03/25 05:42:08;;;;;;;65.13;41.55;;;;;;;;;;2079863;28;20192;-65
2021/03/25 05:43:08;;;;;;;66.32;43.35;;;;;;;;;;2087620;28;20619;-67
2021/03/25 05:44:11;;;;;;;65.82;43.22;;;;;;;;;;2088081;28;20184;-65
2021/03/25 05:45:11;;;;;;;62.47;41.33;;;;;;;;;;2081118;28;20164;-63
2021/03/25 05:46:25;;;;;;;68.60;44.47;;;;;;;;;;2081143;28;20184;-60
2021/03/25 05:47:39;;;;;;;64.45;43.33;;;;;;;;;;2077892;28;20660;-60
2021/03/25 05:48:44;;;;;;;66.90;42.70;;;;;;;;;;2080528;28;20281;-61
2021/03/25 05:50:08;;;;;;;60.20;41.43;;;;;;;;;;2078696;28;20194;-61
2021/03/25 05:51:15;;;;;;;72.80;44.10;;;;;;;;;;2079135;28;20209;-64
2021/03/25 05:52:34;;;;;;;70.47;44.97;;;;;;;;;;2079744;28;20177;-61
2021/03/25 05:53:47;;;;;;;72.25;42.65;;;;;;;;;;2078175;28;20175;-63
2021/03/25 05:55:00;;;;;;;73.23;45.40;;;;;;;;;;2080545;28;20176;-62
2021/03/25 05:56:06;;;;;;;71.18;45.20;;;;;;;;;;2080606;28;20180;-63
2021/03/25 05:57:14;;;;;;;63.77;42.23;;;;;;;;;;2081448;28;20175;-63
2021/03/25 05:58:28;;;;;;;69.25;44.63;;;;;;;;;;2080175;28;20637;-63
2021/03/25 05:59:31;;;;;;;69.20;45.07;;;;;;;;;;2078775;28;20624;-65
2021/03/25 06:00:49;;;;;;;74.93;46.60;;;;;;;;;;2079899;28;20176;-61
2021/03/25 06:01:49;;;;;;;70.83;44.83;;;;;;;;;;2079353;28;20182;-62
2021/03/25 06:03:03;;;;;;;74.25;45.58;;;;;;;;;;2081145;28;20180;-62
2021/03/25 06:04:15;;;;;;;71.88;44.53;;;;;;;;;;2078045;28;20225;-60
2021/03/25 06:05:15;;;;;;;73.50;44.78;;;;;;;;;;2079664;28;20176;-62
2021/03/25 06:06:21;;;;;;;67.55;43.10;;;;;;;;;;2079724;28;20215;-61
2021/03/25 06:07:38;;;;;;;69.03;42.60;;;;;;;;;;2080176;28;20273;-65
2021/03/25 06:08:41;;;;;;;72.20;44.53;;;;;;;;;;2080381;28;20196;-61
2021/03/25 06:09:51;;;;;;;70.70;45.40;;;;;;;;;;2079254;28;20179;-63
2021/03/25 06:11:00;;;;;;;64.07;42.37;;;;;;;;;;2079470;28;20619;-61
2021/03/25 06:12:12;;;;;;;70.35;44.50;;;;;;;;;;2078559;28;20175;-61
2021/03/25 06:13:37;;;;;;;67.47;43.80;;;;;;;;;;2079754;28;20190;-62
2021/03/25 06:14:43;;;;;;;65.18;41.53;;;;;;;;;;2082564;28;20683;-63
2021/03/25 06:15:54;;;;;;;63.10;42.03;;;;;;;;;;2085401;28;20236;-67
2021/03/25 06:17:04;;;;;;;69.95;42.75;;;;;;;;;;2080299;28;20191;-61
2021/03/25 06:18:04;;;;;;;68.55;43.53;;;;;;;;;;2078546;28;20173;-60
2021/03/25 06:19:23;;;;;;;66.45;43.13;;;;;;;;;;2080367;28;20207;-62
2021/03/25 06:20:42;;;;;;;65.43;41.25;;;;;;;;;;2080490;28;20275;-62
2021/03/25 06:22:00;;;;;;;67.53;42.13;;;;;;;;;;2077424;28;20191;-64
2021/03/25 06:23:03;;;;;;;76.40;45.13;;;;;;;;;;2079179;28;20215;-59
2021/03/25 06:24:04;;;;;;;85.05;52.40;;;;;;;;;;2078542;28;20172;-65